SAS454 ENGM-EPWA
Flight info
| Callsign | SAS454 |
|---|---|
| Flight time | 1h 35m |
| Altitude | 37000 |
| Route | OKSAT L996 GETPA L727 NEGIL DCT LARMA DCT LASGU DCT SORIX |
| Aircraft | B738/M-SDE2E3FGHIRWXY/LB1 |
Departure
| Time | 2026-05-04 12:26 |
|---|---|
| Airport | Oslo-Gardermoen International Airport (ENGM) |
Arrival
| Time | 2026-05-04 14:02 |
|---|---|
| Airport | Warsaw Chopin Airport (EPWA) |
| Time | Latitude | Longitude | Altitude | Speed | Heading |
|---|---|---|---|---|---|
| 2026-05-04 11:53 | 60.19416 | 11.10460 | 684 ft | 0 kts | 197° |
| 2026-05-04 12:18 | 60.19434 | 11.10471 | 679 ft | 4 kts | 197° |
| 2026-05-04 12:19 | 60.19460 | 11.10487 | 677 ft | 4 kts | 197° |
| 2026-05-04 12:19 | 60.19483 | 11.10501 | 677 ft | 1 kts | 197° |
| 2026-05-04 12:21 | 60.19474 | 11.10507 | 676 ft | 3 kts | 147° |
| 2026-05-04 12:22 | 60.19473 | 11.10594 | 683 ft | 11 kts | 86° |
| 2026-05-04 12:22 | 60.19486 | 11.10754 | 682 ft | 11 kts | 94° |
| 2026-05-04 12:22 | 60.19468 | 11.10892 | 682 ft | 10 kts | 109° |
| 2026-05-04 12:22 | 60.19455 | 11.11026 | 682 ft | 10 kts | 75° |
| 2026-05-04 12:23 | 60.19494 | 11.11145 | 680 ft | 11 kts | 76° |
| 2026-05-04 12:23 | 60.19498 | 11.11305 | 679 ft | 12 kts | 59° |
| 2026-05-04 12:23 | 60.19571 | 11.11368 | 681 ft | 12 kts | 15° |
| 2026-05-04 12:23 | 60.19648 | 11.11413 | 682 ft | 12 kts | 17° |
| 2026-05-04 12:24 | 60.19726 | 11.11458 | 682 ft | 12 kts | 16° |
| 2026-05-04 12:24 | 60.19806 | 11.11504 | 681 ft | 12 kts | 16° |
| 2026-05-04 12:24 | 60.19887 | 11.11551 | 684 ft | 12 kts | 15° |
| 2026-05-04 12:24 | 60.19977 | 11.11606 | 685 ft | 14 kts | 21° |
| 2026-05-04 12:25 | 60.20070 | 11.11684 | 680 ft | 14 kts | 46° |
| 2026-05-04 12:25 | 60.20076 | 11.11872 | 684 ft | 13 kts | 105° |
| 2026-05-04 12:25 | 60.20046 | 11.12046 | 686 ft | 13 kts | 112° |
| 2026-05-04 12:25 | 60.19981 | 11.12154 | 684 ft | 13 kts | 173° |
| 2026-05-04 12:26 | 60.19847 | 11.12089 | 686 ft | 44 kts | 196° |
| 2026-05-04 12:26 | 60.19305 | 11.11775 | 682 ft | 116 kts | 196° |
| 2026-05-04 12:26 | 60.18337 | 11.11210 | 742 ft | 167 kts | 199° |
| 2026-05-04 12:26 | 60.17171 | 11.10476 | 1296 ft | 186 kts | 200° |
| 2026-05-04 12:27 | 60.15847 | 11.09846 | 1885 ft | 207 kts | 198° |
| 2026-05-04 12:27 | 60.14327 | 11.09412 | 2104 ft | 239 kts | 180° |
| 2026-05-04 12:27 | 60.12634 | 11.10350 | 2538 ft | 265 kts | 157° |
| 2026-05-04 12:27 | 60.11163 | 11.12719 | 3363 ft | 277 kts | 136° |
| 2026-05-04 12:28 | 60.09853 | 11.15572 | 4372 ft | 280 kts | 135° |
| 2026-05-04 12:28 | 60.08522 | 11.18452 | 5316 ft | 283 kts | 136° |
| 2026-05-04 12:28 | 60.07168 | 11.21344 | 6230 ft | 287 kts | 136° |
| 2026-05-04 12:28 | 60.05800 | 11.24271 | 7139 ft | 289 kts | 134° |
| 2026-05-04 12:29 | 60.04566 | 11.27503 | 7968 ft | 295 kts | 127° |
| 2026-05-04 12:29 | 60.03390 | 11.30910 | 8840 ft | 299 kts | 127° |
| 2026-05-04 12:29 | 60.02403 | 11.34606 | 9650 ft | 307 kts | 105° |
| 2026-05-04 12:29 | 60.02260 | 11.38909 | 10169 ft | 322 kts | 79° |
| 2026-05-04 12:30 | 60.03148 | 11.43112 | 10338 ft | 340 kts | 49° |
| 2026-05-04 12:30 | 60.04796 | 11.46686 | 10554 ft | 361 kts | 47° |
| 2026-05-04 12:30 | 60.05962 | 11.51261 | 11001 ft | 381 kts | 76° |
| 2026-05-04 12:30 | 60.06022 | 11.56591 | 11638 ft | 389 kts | 103° |
| 2026-05-04 12:31 | 60.05002 | 11.61511 | 12329 ft | 389 kts | 127° |
| 2026-05-04 12:31 | 60.03205 | 11.65497 | 13039 ft | 385 kts | 146° |
| 2026-05-04 12:31 | 60.00950 | 11.68293 | 13713 ft | 378 kts | 165° |
| 2026-05-04 12:31 | 59.98443 | 11.69690 | 14430 ft | 372 kts | 175° |
| 2026-05-04 12:32 | 59.95912 | 11.70722 | 15155 ft | 372 kts | 177° |
| 2026-05-04 12:32 | 59.90767 | 11.72638 | 16407 ft | 380 kts | 178° |
| 2026-05-04 12:32 | 59.88159 | 11.73629 | 17094 ft | 384 kts | 178° |
| 2026-05-04 12:33 | 59.85529 | 11.74653 | 17787 ft | 387 kts | 178° |
| 2026-05-04 12:33 | 59.82874 | 11.75708 | 18381 ft | 390 kts | 178° |
| 2026-05-04 12:33 | 59.80196 | 11.76782 | 18943 ft | 394 kts | 178° |
| 2026-05-04 12:33 | 59.77502 | 11.77869 | 19505 ft | 397 kts | 178° |
| 2026-05-04 12:34 | 59.74789 | 11.78967 | 20061 ft | 400 kts | 178° |
| 2026-05-04 12:34 | 59.72055 | 11.80073 | 20586 ft | 403 kts | 178° |
| 2026-05-04 12:34 | 59.69298 | 11.81184 | 21084 ft | 406 kts | 178° |
| 2026-05-04 12:34 | 59.66520 | 11.82303 | 21631 ft | 409 kts | 178° |
| 2026-05-04 12:35 | 59.63723 | 11.83429 | 22110 ft | 410 kts | 177° |
| 2026-05-04 12:35 | 59.60920 | 11.84555 | 22634 ft | 413 kts | 177° |
| 2026-05-04 12:35 | 59.58092 | 11.85686 | 23079 ft | 417 kts | 177° |
| 2026-05-04 12:35 | 59.55236 | 11.86827 | 23508 ft | 421 kts | 177° |
| 2026-05-04 12:36 | 59.52354 | 11.87977 | 23899 ft | 424 kts | 176° |
| 2026-05-04 12:36 | 59.49452 | 11.89134 | 24255 ft | 428 kts | 176° |
| 2026-05-04 12:36 | 59.46523 | 11.90299 | 24599 ft | 432 kts | 176° |
| 2026-05-04 12:36 | 59.43564 | 11.91475 | 24953 ft | 435 kts | 176° |
| 2026-05-04 12:37 | 59.40587 | 11.92658 | 25301 ft | 438 kts | 176° |
| 2026-05-04 12:37 | 59.37581 | 11.93848 | 25639 ft | 442 kts | 176° |
| 2026-05-04 12:37 | 59.34593 | 11.95017 | 25967 ft | 444 kts | 178° |
| 2026-05-04 12:37 | 59.31543 | 11.95693 | 26185 ft | 439 kts | 187° |
| 2026-05-04 12:38 | 59.28499 | 11.95453 | 26421 ft | 439 kts | 191° |
| 2026-05-04 12:38 | 59.25444 | 11.95045 | 26756 ft | 441 kts | 192° |
| 2026-05-04 12:38 | 59.22369 | 11.94639 | 27083 ft | 444 kts | 191° |
| 2026-05-04 12:38 | 59.19273 | 11.94261 | 27386 ft | 448 kts | 191° |
| 2026-05-04 12:39 | 59.16153 | 11.93910 | 27683 ft | 451 kts | 191° |
| 2026-05-04 12:39 | 59.13005 | 11.93575 | 27963 ft | 454 kts | 191° |
| 2026-05-04 12:39 | 59.09813 | 11.93514 | 28211 ft | 466 kts | 183° |
| 2026-05-04 12:39 | 59.06565 | 11.94510 | 28469 ft | 479 kts | 173° |
| 2026-05-04 12:40 | 59.03355 | 11.96452 | 28666 ft | 490 kts | 163° |
| 2026-05-04 12:40 | 59.01271 | 11.98226 | 28805 ft | 495 kts | 161° |
| 2026-05-04 12:40 | 58.98088 | 12.01042 | 29030 ft | 498 kts | 161° |
| 2026-05-04 12:40 | 58.94965 | 12.03810 | 29304 ft | 500 kts | 161° |
| 2026-05-04 12:41 | 58.91800 | 12.06590 | 29713 ft | 499 kts | 161° |
| 2026-05-04 12:41 | 58.88629 | 12.09343 | 30070 ft | 498 kts | 161° |
| 2026-05-04 12:41 | 58.85464 | 12.12062 | 30436 ft | 497 kts | 161° |
| 2026-05-04 12:41 | 58.82307 | 12.14753 | 30844 ft | 494 kts | 162° |
| 2026-05-04 12:42 | 58.79165 | 12.17421 | 31259 ft | 492 kts | 162° |
| 2026-05-04 12:42 | 58.76039 | 12.20066 | 31622 ft | 490 kts | 162° |
| 2026-05-04 12:42 | 58.72921 | 12.22698 | 31933 ft | 489 kts | 162° |
| 2026-05-04 12:42 | 58.69811 | 12.25319 | 32278 ft | 487 kts | 162° |
| 2026-05-04 12:43 | 58.66710 | 12.27930 | 32638 ft | 486 kts | 162° |
| 2026-05-04 12:43 | 58.63619 | 12.30528 | 33007 ft | 484 kts | 162° |
| 2026-05-04 12:43 | 58.60534 | 12.33117 | 33377 ft | 482 kts | 162° |
| 2026-05-04 12:43 | 58.57468 | 12.35685 | 33723 ft | 481 kts | 162° |
| 2026-05-04 12:44 | 58.54408 | 12.38243 | 33993 ft | 480 kts | 162° |
| 2026-05-04 12:44 | 58.51345 | 12.40797 | 34240 ft | 479 kts | 162° |
| 2026-05-04 12:44 | 58.48291 | 12.43340 | 34481 ft | 479 kts | 162° |
| 2026-05-04 12:44 | 58.45237 | 12.45878 | 34728 ft | 477 kts | 162° |
| 2026-05-04 12:45 | 58.42195 | 12.48402 | 34969 ft | 476 kts | 162° |
| 2026-05-04 12:45 | 58.39199 | 12.50883 | 35199 ft | 475 kts | 162° |
| 2026-05-04 12:45 | 58.36134 | 12.53418 | 35514 ft | 472 kts | 162° |
| 2026-05-04 12:45 | 58.33163 | 12.55871 | 35839 ft | 470 kts | 162° |
| 2026-05-04 12:46 | 58.30166 | 12.58339 | 36052 ft | 470 kts | 162° |
| 2026-05-04 12:46 | 58.27124 | 12.60840 | 36240 ft | 471 kts | 161° |
| 2026-05-04 12:46 | 58.24228 | 12.63640 | 36412 ft | 477 kts | 153° |
| 2026-05-04 12:46 | 58.21510 | 12.67296 | 36636 ft | 480 kts | 148° |
| 2026-05-04 12:47 | 58.18858 | 12.71144 | 36802 ft | 481 kts | 147° |
| 2026-05-04 12:47 | 58.13544 | 12.78930 | 36786 ft | 482 kts | 147° |
| 2026-05-04 12:48 | 58.08238 | 12.86605 | 36778 ft | 478 kts | 148° |
| 2026-05-04 12:48 | 58.02940 | 12.94157 | 36787 ft | 475 kts | 148° |
| 2026-05-04 12:49 | 57.97661 | 13.01620 | 36778 ft | 473 kts | 148° |
| 2026-05-04 12:49 | 57.92392 | 13.09038 | 36788 ft | 472 kts | 148° |
| 2026-05-04 12:50 | 57.87118 | 13.16437 | 36799 ft | 474 kts | 148° |
| 2026-05-04 12:50 | 57.81857 | 13.23794 | 36783 ft | 476 kts | 148° |
| 2026-05-04 12:51 | 57.76499 | 13.31259 | 36780 ft | 478 kts | 148° |
| 2026-05-04 12:51 | 57.71186 | 13.38636 | 36791 ft | 479 kts | 148° |
| 2026-05-04 12:52 | 57.65819 | 13.46060 | 36790 ft | 481 kts | 148° |
| 2026-05-04 12:52 | 57.60431 | 13.53485 | 36793 ft | 482 kts | 148° |
| 2026-05-04 12:53 | 57.55038 | 13.60890 | 36790 ft | 481 kts | 148° |
| 2026-05-04 12:53 | 57.49644 | 13.68268 | 36798 ft | 481 kts | 148° |
| 2026-05-04 12:54 | 57.44261 | 13.75603 | 36766 ft | 479 kts | 148° |
| 2026-05-04 12:54 | 57.38891 | 13.82894 | 36786 ft | 477 kts | 149° |
| 2026-05-04 12:55 | 57.33533 | 13.90140 | 36801 ft | 475 kts | 149° |
| 2026-05-04 12:55 | 57.28200 | 13.97327 | 36794 ft | 474 kts | 149° |
| 2026-05-04 12:56 | 57.22876 | 14.04473 | 36810 ft | 472 kts | 149° |
| 2026-05-04 12:56 | 57.17567 | 14.11574 | 36804 ft | 471 kts | 149° |
| 2026-05-04 12:57 | 57.12261 | 14.18645 | 36802 ft | 470 kts | 149° |
| 2026-05-04 12:57 | 57.06960 | 14.25685 | 36805 ft | 470 kts | 149° |
| 2026-05-04 12:58 | 57.01661 | 14.32695 | 36803 ft | 469 kts | 149° |
| 2026-05-04 12:58 | 56.96353 | 14.39693 | 36818 ft | 470 kts | 149° |
| 2026-05-04 12:59 | 56.91075 | 14.46626 | 36832 ft | 470 kts | 149° |
| 2026-05-04 12:59 | 56.85745 | 14.53603 | 36825 ft | 471 kts | 149° |
| 2026-05-04 13:00 | 56.80404 | 14.60570 | 36832 ft | 472 kts | 150° |
| 2026-05-04 13:00 | 56.75056 | 14.67522 | 36822 ft | 472 kts | 149° |
| 2026-05-04 13:01 | 56.69702 | 14.74456 | 36835 ft | 472 kts | 150° |
| 2026-05-04 13:01 | 56.64346 | 14.81369 | 36822 ft | 472 kts | 150° |
| 2026-05-04 13:02 | 56.58990 | 14.88257 | 36824 ft | 471 kts | 150° |
| 2026-05-04 13:02 | 56.53638 | 14.95115 | 36826 ft | 471 kts | 150° |
| 2026-05-04 13:03 | 56.48294 | 15.01938 | 36842 ft | 470 kts | 150° |
| 2026-05-04 13:03 | 56.42990 | 15.08689 | 36845 ft | 468 kts | 150° |
| 2026-05-04 13:04 | 56.37661 | 15.15446 | 36848 ft | 467 kts | 150° |
| 2026-05-04 13:04 | 56.32345 | 15.22163 | 36855 ft | 466 kts | 151° |
| 2026-05-04 13:05 | 56.27041 | 15.28842 | 36858 ft | 465 kts | 151° |
| 2026-05-04 13:05 | 56.21738 | 15.35496 | 36840 ft | 464 kts | 151° |
| 2026-05-04 13:06 | 56.16432 | 15.42130 | 36841 ft | 464 kts | 151° |
| 2026-05-04 13:06 | 56.11136 | 15.48733 | 36834 ft | 463 kts | 152° |
| 2026-05-04 13:07 | 56.05847 | 15.55302 | 36843 ft | 462 kts | 152° |
| 2026-05-04 13:07 | 56.00559 | 15.61848 | 36859 ft | 461 kts | 152° |
| 2026-05-04 13:08 | 55.95271 | 15.68370 | 36858 ft | 461 kts | 152° |
| 2026-05-04 13:08 | 55.90028 | 15.74815 | 36857 ft | 461 kts | 152° |
| 2026-05-04 13:09 | 55.84735 | 15.81300 | 36859 ft | 462 kts | 152° |
| 2026-05-04 13:09 | 55.79440 | 15.87767 | 36862 ft | 462 kts | 152° |
| 2026-05-04 13:10 | 55.74138 | 15.94221 | 36858 ft | 462 kts | 152° |
| 2026-05-04 13:10 | 55.68837 | 16.00653 | 36870 ft | 462 kts | 152° |
| 2026-05-04 13:11 | 55.63536 | 16.07062 | 36878 ft | 461 kts | 152° |
| 2026-05-04 13:11 | 55.58229 | 16.13457 | 36884 ft | 462 kts | 152° |
| 2026-05-04 13:12 | 55.52921 | 16.19833 | 36888 ft | 462 kts | 152° |
| 2026-05-04 13:12 | 55.47605 | 16.26197 | 36883 ft | 461 kts | 152° |
| 2026-05-04 13:13 | 55.42297 | 16.32531 | 36896 ft | 461 kts | 153° |
| 2026-05-04 13:13 | 55.36987 | 16.38847 | 36900 ft | 460 kts | 153° |
| 2026-05-04 13:14 | 55.31678 | 16.45142 | 36903 ft | 459 kts | 153° |
| 2026-05-04 13:14 | 55.26401 | 16.51470 | 36901 ft | 461 kts | 150° |
| 2026-05-04 13:15 | 55.21318 | 16.58371 | 36907 ft | 463 kts | 148° |
| 2026-05-04 13:15 | 55.16294 | 16.65401 | 36896 ft | 462 kts | 148° |
| 2026-05-04 13:16 | 55.11299 | 16.72330 | 36909 ft | 461 kts | 148° |
| 2026-05-04 13:16 | 55.06265 | 16.79232 | 36912 ft | 460 kts | 148° |
| 2026-05-04 13:17 | 55.01223 | 16.86100 | 36912 ft | 460 kts | 148° |
| 2026-05-04 13:17 | 54.96179 | 16.92944 | 36917 ft | 459 kts | 148° |
| 2026-05-04 13:18 | 54.91136 | 16.99767 | 36918 ft | 460 kts | 148° |
| 2026-05-04 13:18 | 54.86088 | 17.06576 | 36927 ft | 460 kts | 148° |
| 2026-05-04 13:19 | 54.81031 | 17.13377 | 36923 ft | 459 kts | 149° |
| 2026-05-04 13:19 | 54.75972 | 17.20156 | 36931 ft | 460 kts | 149° |
| 2026-05-04 13:20 | 54.70934 | 17.26885 | 36932 ft | 460 kts | 149° |
| 2026-05-04 13:20 | 54.65856 | 17.33646 | 36932 ft | 461 kts | 149° |
| 2026-05-04 13:21 | 54.60773 | 17.40393 | 36935 ft | 461 kts | 149° |
| 2026-05-04 13:21 | 54.55681 | 17.47130 | 36910 ft | 462 kts | 149° |
| 2026-05-04 13:22 | 54.50580 | 17.53858 | 36924 ft | 462 kts | 149° |
| 2026-05-04 13:22 | 54.45469 | 17.60577 | 36923 ft | 462 kts | 149° |
| 2026-05-04 13:23 | 54.40355 | 17.67277 | 36923 ft | 463 kts | 149° |
| 2026-05-04 13:23 | 54.35227 | 17.73974 | 36924 ft | 463 kts | 149° |
| 2026-05-04 13:24 | 54.30091 | 17.80659 | 36913 ft | 464 kts | 149° |
| 2026-05-04 13:24 | 54.24938 | 17.87347 | 36905 ft | 465 kts | 149° |
| 2026-05-04 13:25 | 54.17202 | 17.97346 | 36886 ft | 465 kts | 149° |
| 2026-05-04 13:25 | 54.12065 | 18.03958 | 36907 ft | 465 kts | 149° |
| 2026-05-04 13:26 | 54.06891 | 18.10598 | 36906 ft | 466 kts | 149° |
| 2026-05-04 13:26 | 54.01706 | 18.17229 | 36900 ft | 466 kts | 149° |
| 2026-05-04 13:27 | 53.96519 | 18.23844 | 36897 ft | 466 kts | 149° |
| 2026-05-04 13:27 | 53.91327 | 18.30442 | 36902 ft | 466 kts | 149° |
| 2026-05-04 13:28 | 53.86128 | 18.37030 | 36902 ft | 467 kts | 149° |
| 2026-05-04 13:28 | 53.81805 | 18.42490 | 36898 ft | 466 kts | 149° |
| 2026-05-04 13:29 | 53.76593 | 18.49055 | 36902 ft | 467 kts | 149° |
| 2026-05-04 13:29 | 53.70536 | 18.56658 | 36893 ft | 467 kts | 148° |
| 2026-05-04 13:30 | 53.66165 | 18.62127 | 36916 ft | 467 kts | 148° |
| 2026-05-04 13:30 | 53.60944 | 18.68642 | 36907 ft | 467 kts | 148° |
| 2026-05-04 13:31 | 53.55722 | 18.75138 | 36907 ft | 467 kts | 148° |
| 2026-05-04 13:31 | 53.50486 | 18.81628 | 36685 ft | 471 kts | 148° |
| 2026-05-04 13:32 | 53.47838 | 18.84900 | 36172 ft | 472 kts | 148° |
| 2026-05-04 13:32 | 53.45203 | 18.88157 | 35581 ft | 470 kts | 149° |
| 2026-05-04 13:32 | 53.42568 | 18.91408 | 34918 ft | 470 kts | 148° |
| 2026-05-04 13:32 | 53.39932 | 18.94654 | 34273 ft | 471 kts | 149° |
| 2026-05-04 13:33 | 53.37326 | 18.97858 | 33578 ft | 472 kts | 149° |
| 2026-05-04 13:33 | 53.34675 | 19.01111 | 32795 ft | 472 kts | 149° |
| 2026-05-04 13:33 | 53.32023 | 19.04360 | 32062 ft | 472 kts | 148° |
| 2026-05-04 13:33 | 53.29368 | 19.07610 | 31327 ft | 473 kts | 148° |
| 2026-05-04 13:34 | 53.26713 | 19.10854 | 30571 ft | 473 kts | 148° |
| 2026-05-04 13:34 | 53.24054 | 19.14101 | 29976 ft | 470 kts | 148° |
| 2026-05-04 13:34 | 53.21426 | 19.17304 | 29359 ft | 466 kts | 148° |
| 2026-05-04 13:34 | 53.18832 | 19.20503 | 28787 ft | 460 kts | 147° |
| 2026-05-04 13:35 | 53.16294 | 19.23697 | 28248 ft | 454 kts | 147° |
| 2026-05-04 13:35 | 53.11325 | 19.29997 | 27186 ft | 444 kts | 146° |
| 2026-05-04 13:35 | 53.08875 | 19.33093 | 26646 ft | 440 kts | 146° |
| 2026-05-04 13:36 | 53.06444 | 19.36155 | 26117 ft | 436 kts | 146° |
| 2026-05-04 13:36 | 53.04036 | 19.39176 | 25603 ft | 432 kts | 146° |
| 2026-05-04 13:36 | 53.01644 | 19.42171 | 25090 ft | 428 kts | 146° |
| 2026-05-04 13:36 | 52.99275 | 19.45132 | 24582 ft | 425 kts | 146° |
| 2026-05-04 13:37 | 52.96951 | 19.48031 | 24082 ft | 422 kts | 146° |
| 2026-05-04 13:37 | 52.94614 | 19.50943 | 23578 ft | 419 kts | 146° |
| 2026-05-04 13:37 | 52.92287 | 19.53839 | 22980 ft | 417 kts | 146° |
| 2026-05-04 13:37 | 52.89980 | 19.56707 | 22430 ft | 413 kts | 146° |
| 2026-05-04 13:38 | 52.87692 | 19.59548 | 21913 ft | 409 kts | 146° |
| 2026-05-04 13:38 | 52.85428 | 19.62356 | 21381 ft | 405 kts | 146° |
| 2026-05-04 13:38 | 52.83179 | 19.65140 | 20898 ft | 402 kts | 146° |
| 2026-05-04 13:38 | 52.80952 | 19.67894 | 20401 ft | 399 kts | 146° |
| 2026-05-04 13:39 | 52.78741 | 19.70624 | 19909 ft | 396 kts | 146° |
| 2026-05-04 13:39 | 52.76541 | 19.73338 | 19422 ft | 393 kts | 146° |
| 2026-05-04 13:39 | 52.74354 | 19.76033 | 18934 ft | 391 kts | 147° |
| 2026-05-04 13:39 | 52.72196 | 19.78689 | 18689 ft | 382 kts | 147° |
| 2026-05-04 13:40 | 52.70114 | 19.81306 | 18517 ft | 373 kts | 142° |
| 2026-05-04 13:40 | 52.68471 | 19.84602 | 18128 ft | 376 kts | 123° |
| 2026-05-04 13:40 | 52.67199 | 19.88351 | 17699 ft | 374 kts | 122° |
| 2026-05-04 13:40 | 52.65942 | 19.92083 | 17242 ft | 372 kts | 122° |
| 2026-05-04 13:41 | 52.64684 | 19.95789 | 16811 ft | 369 kts | 122° |
| 2026-05-04 13:41 | 52.63426 | 19.99457 | 16400 ft | 367 kts | 123° |
| 2026-05-04 13:41 | 52.62169 | 20.03092 | 15986 ft | 364 kts | 123° |
| 2026-05-04 13:42 | 52.59661 | 20.10295 | 15170 ft | 360 kts | 123° |
| 2026-05-04 13:42 | 52.58431 | 20.13812 | 14765 ft | 359 kts | 123° |
| 2026-05-04 13:42 | 52.57188 | 20.17359 | 14360 ft | 357 kts | 124° |
| 2026-05-04 13:42 | 52.55946 | 20.20901 | 13956 ft | 356 kts | 124° |
| 2026-05-04 13:43 | 52.54724 | 20.24386 | 13746 ft | 348 kts | 124° |
| 2026-05-04 13:43 | 52.53531 | 20.27783 | 13576 ft | 339 kts | 124° |
| 2026-05-04 13:43 | 52.52365 | 20.31097 | 13399 ft | 330 kts | 124° |
| 2026-05-04 13:43 | 52.51227 | 20.34322 | 13233 ft | 322 kts | 124° |
| 2026-05-04 13:44 | 52.50062 | 20.37453 | 12887 ft | 320 kts | 127° |
| 2026-05-04 13:44 | 52.48864 | 20.40531 | 12575 ft | 318 kts | 127° |
| 2026-05-04 13:44 | 52.47672 | 20.43570 | 12261 ft | 316 kts | 127° |
| 2026-05-04 13:44 | 52.46488 | 20.46593 | 11943 ft | 314 kts | 127° |
| 2026-05-04 13:45 | 52.45315 | 20.49597 | 11625 ft | 312 kts | 127° |
| 2026-05-04 13:45 | 52.44151 | 20.52582 | 11330 ft | 310 kts | 126° |
| 2026-05-04 13:45 | 52.42996 | 20.55548 | 11030 ft | 308 kts | 126° |
| 2026-05-04 13:45 | 52.41846 | 20.58502 | 10713 ft | 306 kts | 126° |
| 2026-05-04 13:46 | 52.40708 | 20.61423 | 10417 ft | 305 kts | 126° |
| 2026-05-04 13:46 | 52.39569 | 20.64342 | 10140 ft | 302 kts | 126° |
| 2026-05-04 13:46 | 52.38454 | 20.67199 | 10020 ft | 293 kts | 126° |
| 2026-05-04 13:46 | 52.37370 | 20.69974 | 9867 ft | 287 kts | 126° |
| 2026-05-04 13:47 | 52.36299 | 20.72706 | 9679 ft | 284 kts | 126° |
| 2026-05-04 13:47 | 52.35230 | 20.75430 | 9474 ft | 285 kts | 126° |
| 2026-05-04 13:47 | 52.34154 | 20.78166 | 9284 ft | 287 kts | 126° |
| 2026-05-04 13:47 | 52.33070 | 20.80922 | 9094 ft | 289 kts | 126° |
| 2026-05-04 13:48 | 52.32006 | 20.83630 | 8908 ft | 291 kts | 126° |
| 2026-05-04 13:48 | 52.30885 | 20.86478 | 8708 ft | 290 kts | 126° |
| 2026-05-04 13:48 | 52.29816 | 20.89192 | 8505 ft | 287 kts | 126° |
| 2026-05-04 13:48 | 52.28744 | 20.91913 | 8309 ft | 283 kts | 126° |
| 2026-05-04 13:49 | 52.27683 | 20.94601 | 8109 ft | 281 kts | 126° |
| 2026-05-04 13:49 | 52.26626 | 20.97280 | 7925 ft | 280 kts | 126° |
| 2026-05-04 13:49 | 52.25573 | 20.99941 | 7747 ft | 279 kts | 126° |
| 2026-05-04 13:49 | 52.24518 | 21.02603 | 7556 ft | 279 kts | 126° |
| 2026-05-04 13:50 | 52.23464 | 21.05264 | 7362 ft | 279 kts | 126° |
| 2026-05-04 13:50 | 52.22465 | 21.07985 | 7166 ft | 280 kts | 119° |
| 2026-05-04 13:50 | 52.21647 | 21.10865 | 6992 ft | 280 kts | 116° |
| 2026-05-04 13:50 | 52.20863 | 21.13790 | 6803 ft | 282 kts | 116° |
| 2026-05-04 13:51 | 52.20072 | 21.16714 | 6596 ft | 282 kts | 116° |
| 2026-05-04 13:51 | 52.19265 | 21.19625 | 6384 ft | 280 kts | 117° |
| 2026-05-04 13:51 | 52.18460 | 21.22490 | 6196 ft | 275 kts | 117° |
| 2026-05-04 13:51 | 52.17666 | 21.25294 | 6005 ft | 271 kts | 117° |
| 2026-05-04 13:52 | 52.16118 | 21.30752 | 5660 ft | 264 kts | 117° |
| 2026-05-04 13:52 | 52.15348 | 21.33462 | 5470 ft | 264 kts | 117° |
| 2026-05-04 13:52 | 52.14577 | 21.36161 | 5301 ft | 263 kts | 117° |
| 2026-05-04 13:53 | 52.13807 | 21.38858 | 5103 ft | 263 kts | 118° |
| 2026-05-04 13:53 | 52.13043 | 21.41541 | 4984 ft | 258 kts | 117° |
| 2026-05-04 13:53 | 52.12303 | 21.44149 | 4917 ft | 248 kts | 117° |
| 2026-05-04 13:54 | 52.10347 | 21.48186 | 4685 ft | 213 kts | 165° |
| 2026-05-04 13:54 | 52.08954 | 21.48578 | 4649 ft | 200 kts | 186° |
| 2026-05-04 13:54 | 52.06395 | 21.47280 | 4535 ft | 191 kts | 207° |
| 2026-05-04 13:55 | 52.05191 | 21.46376 | 4477 ft | 190 kts | 208° |
| 2026-05-04 13:55 | 52.03960 | 21.43194 | 4363 ft | 187 kts | 284° |
| 2026-05-04 13:55 | 52.04406 | 21.41165 | 4298 ft | 193 kts | 286° |
| 2026-05-04 13:56 | 52.04852 | 21.39126 | 4257 ft | 188 kts | 288° |
| 2026-05-04 13:56 | 52.05337 | 21.37170 | 4182 ft | 186 kts | 290° |
| 2026-05-04 13:56 | 52.06358 | 21.33354 | 4049 ft | 184 kts | 291° |
| 2026-05-04 13:57 | 52.06878 | 21.31464 | 3988 ft | 183 kts | 291° |
| 2026-05-04 13:57 | 52.07395 | 21.29587 | 3938 ft | 181 kts | 291° |
| 2026-05-04 13:58 | 52.08957 | 21.23972 | 3728 ft | 190 kts | 291° |
| 2026-05-04 13:58 | 52.10051 | 21.20049 | 3392 ft | 183 kts | 291° |
| 2026-05-04 13:58 | 52.10568 | 21.18187 | 3247 ft | 179 kts | 291° |
| 2026-05-04 13:59 | 52.11081 | 21.16343 | 3124 ft | 178 kts | 290° |
| 2026-05-04 13:59 | 52.11587 | 21.14539 | 2949 ft | 174 kts | 291° |
| 2026-05-04 13:59 | 52.12582 | 21.10976 | 2445 ft | 169 kts | 291° |
| 2026-05-04 14:00 | 52.13059 | 21.09275 | 2189 ft | 161 kts | 291° |
| 2026-05-04 14:00 | 52.13947 | 21.06098 | 1707 ft | 149 kts | 290° |
| 2026-05-04 14:00 | 52.14371 | 21.04574 | 1462 ft | 144 kts | 289° |
| 2026-05-04 14:01 | 52.14778 | 21.03121 | 1261 ft | 140 kts | 289° |
| 2026-05-04 14:01 | 52.15181 | 21.01683 | 1043 ft | 144 kts | 291° |
| 2026-05-04 14:01 | 52.16045 | 20.98582 | 520 ft | 154 kts | 291° |
| 2026-05-04 14:02 | 52.16480 | 20.97048 | 347 ft | 141 kts | 290° |
| 2026-05-04 14:02 | 52.16773 | 20.95991 | 347 ft | 49 kts | 295° |
| 2026-05-04 14:02 | 52.16878 | 20.95639 | 353 ft | 21 kts | 301° |
| 2026-05-04 14:02 | 52.16992 | 20.95628 | 349 ft | 18 kts | 26° |
| 2026-05-04 14:03 | 52.17102 | 20.95719 | 353 ft | 17 kts | 26° |
| 2026-05-04 14:03 | 52.17195 | 20.95791 | 353 ft | 13 kts | 26° |
| 2026-05-04 14:03 | 52.17273 | 20.95851 | 352 ft | 11 kts | 25° |
| 2026-05-04 14:03 | 52.17350 | 20.95908 | 346 ft | 14 kts | 24° |
| 2026-05-04 14:04 | 52.17546 | 20.96066 | 354 ft | 15 kts | 31° |
| 2026-05-04 14:04 | 52.17575 | 20.96212 | 348 ft | 14 kts | 113° |
| 2026-05-04 14:04 | 52.17496 | 20.96302 | 354 ft | 14 kts | 150° |
| 2026-05-04 14:05 | 52.17428 | 20.96451 | 351 ft | 8 kts | 69° |
| 2026-05-04 14:05 | 52.17448 | 20.96538 | 352 ft | 8 kts | 81° |
| 2026-05-04 14:05 | 52.17420 | 20.96610 | 349 ft | 8 kts | 147° |
| 2026-05-04 14:06 | 52.17372 | 20.96648 | 349 ft | 8 kts | 152° |
| 2026-05-04 14:06 | 52.17327 | 20.96688 | 352 ft | 7 kts | 152° |
| 2026-05-04 14:06 | 52.17308 | 20.96705 | 351 ft | 2 kts | 152° |
| 2026-05-04 14:06 | 52.17299 | 20.96721 | 352 ft | 2 kts | 120° |
| 2026-05-04 14:07 | 52.17299 | 20.96751 | 352 ft | 3 kts | 79° |
| 2026-05-04 14:07 | 52.17311 | 20.96793 | 357 ft | 5 kts | 62° |
| 2026-05-04 14:07 | 52.17324 | 20.96834 | 349 ft | 3 kts | 62° |
| 2026-05-04 14:07 | 52.17330 | 20.96851 | 349 ft | 0 kts | 63° |